Time;durP1;ratioP1;P1;durP2;ratioP2;P2;SDS_P1;SDS_P2;PMS_P1;PMS_P2;Temp;Humidity;BMP_temperature;BMP_pressure;BME280_temperature;BME280_humidity;BME280_pressure;Samples;Min_cycle;Max_cycle;Signal;HPM_P1;HPM_P2
2022/08/23 00:01:29;;;;;;;14.77;11.55;;;;;;;24.59;55.04;99834.44;5037932;28;20052;-74
2022/08/23 00:04:01;;;;;;;14.27;9.77;;;;;;;24.58;54.93;99827.06;5040527;28;20051;-73
2022/08/23 00:06:28;;;;;;;10.32;9.25;;;;;;;24.27;55.38;99779.84;5038864;28;20088;-72
2022/08/23 00:08:56;;;;;;;17.25;9.20;;;;;;;24.61;54.98;99831.19;5038582;28;20540;-72
2022/08/23 00:11:30;;;;;;;20.15;10.25;;;;;;;24.60;55.16;99818.94;5038295;28;20103;-73
2022/08/23 00:14:01;;;;;;;11.52;9.93;;;;;;;24.64;55.02;99814.06;5038061;28;20045;-72
2022/08/23 00:16:28;;;;;;;16.75;9.98;;;;;;;24.69;55.08;99827.19;5037886;28;20050;-73
2022/08/23 00:18:55;;;;;;;11.68;9.45;;;;;;;24.51;54.89;99787.03;5037982;28;20517;-73
2022/08/23 00:21:22;;;;;;;11.65;9.23;;;;;;;24.76;55.10;99822.34;5038290;28;20136;-73
2022/08/23 00:23:49;;;;;;;13.90;9.98;;;;;;;24.60;55.28;99796.09;5037901;28;20049;-73
2022/08/23 00:26:19;;;;;;;13.30;9.05;;;;;;;24.78;55.26;99821.94;5037152;28;20099;-74
2022/08/23 00:28:48;;;;;;;15.07;11.18;;;;;;;24.13;55.04;99718.59;5038943;28;20108;-74
2022/08/23 00:31:17;;;;;;;13.10;9.23;;;;;;;24.76;55.00;99810.94;5039257;28;20076;-74
2022/08/23 00:33:44;;;;;;;11.68;9.93;;;;;;;24.23;55.21;99728.47;5038575;28;20498;-74
2022/08/23 00:36:12;;;;;;;10.40;9.45;;;;;;;24.73;55.00;99813.75;5039257;28;20083;-73
2022/08/23 00:38:38;;;;;;;12.63;9.55;;;;;;;24.85;55.33;99818.34;5057574;28;20088;-74
2022/08/23 00:41:06;;;;;;;13.30;9.43;;;;;;;24.89;55.12;99819.19;5056896;28;20052;-73
2022/08/23 00:49:33;;;;;;;21.10;13.88;;;;;;;24.90;55.39;99815.94;5054488;28;20055;-74
2022/08/23 00:52:16;;;;;;;18.95;12.13;;;;;;;24.87;55.17;99813.06;5055368;28;20083;-74
2022/08/23 00:54:44;;;;;;;11.27;10.02;;;;;;;24.71;55.08;99793.34;5054237;28;20056;-75
2022/08/23 00:57:18;;;;;;;11.75;9.13;;;;;;;24.72;55.61;99795.81;5054982;28;20284;-74
2022/08/23 00:59:45;;;;;;;21.30;9.48;;;;;;;24.78;55.17;99808.47;5054823;28;20053;-73
2022/08/23 01:02:13;;;;;;;13.82;8.93;;;;;;;24.81;55.57;99807.69;5055067;28;20080;-73
2022/08/23 01:04:43;;;;;;;14.30;9.68;;;;;;;24.84;55.71;99817.50;5054981;28;20049;-73
2022/08/23 01:07:23;;;;;;;13.88;11.18;;;;;;;24.81;55.58;99804.84;5054684;28;20084;-74
2022/08/23 01:09:54;;;;;;;15.98;9.75;;;;;;;24.80;55.64;99805.25;5054000;28;20053;-73
2022/08/23 01:12:39;;;;;;;10.65;9.07;;;;;;;24.45;55.80;99760.09;5070056;28;20091;-73
2022/08/23 01:15:22;;;;;;;14.90;9.82;;;;;;;24.79;55.27;99807.28;5054985;28;20080;-73
2022/08/23 01:18:05;;;;;;;16.77;9.95;;;;;;;24.78;55.49;99807.66;5054643;28;20049;-74
2022/08/23 01:20:48;;;;;;;12.57;9.73;;;;;;;24.79;55.48;99826.47;5053492;28;20056;-75
2022/08/23 01:23:29;;;;;;;15.07;9.27;;;;;;;24.58;55.86;99807.09;5044061;28;20049;-73
2022/08/23 01:25:57;;;;;;;11.70;8.55;;;;;;;24.65;56.35;99835.72;5034344;28;20103;-74
2022/08/23 01:28:24;;;;;;;10.65;8.50;;;;;;;24.57;56.27;99819.72;5034709;28;20552;-74
2022/08/23 01:30:52;;;;;;;20.80;8.63;;;;;;;24.35;56.12;99796.66;5033239;28;20085;-73
2022/08/23 01:33:20;;;;;;;17.48;8.95;;;;;;;24.46;56.22;99818.81;5033014;28;20081;-73
2022/08/23 01:35:52;;;;;;;15.45;8.80;;;;;;;24.36;56.63;99803.19;5034078;28;20064;-74
2022/08/23 01:38:21;;;;;;;15.00;9.65;;;;;;;24.32;56.31;99806.00;5034089;28;20104;-73
2022/08/23 01:40:49;;;;;;;18.27;9.90;;;;;;;24.32;56.50;99816.59;5034167;28;20053;-73
2022/08/23 01:43:18;;;;;;;19.05;9.77;;;;;;;24.29;56.38;99820.22;5034034;28;20045;-73
2022/08/23 01:45:47;;;;;;;16.05;9.93;;;;;;;24.07;56.47;99782.09;5034607;28;20096;-73
2022/08/23 01:48:15;;;;;;;18.05;10.30;;;;;;;24.17;56.63;99811.94;5033954;28;20096;-73
2022/08/23 01:50:43;;;;;;;19.75;10.45;;;;;;;24.13;56.74;99817.59;5049486;28;20115;-74
2022/08/23 01:53:10;;;;;;;18.92;8.55;;;;;;;24.08;57.05;99815.94;5033868;28;20099;-74
2022/08/23 01:55:39;;;;;;;17.25;9.88;;;;;;;24.05;56.90;99808.16;5033752;28;20088;-73
2022/08/23 01:58:07;;;;;;;24.00;10.30;;;;;;;24.00;56.92;99805.66;5034105;28;20042;-73
2022/08/23 02:00:37;;;;;;;22.98;11.75;;;;;;;23.81;57.09;99783.03;5032843;28;20089;-74
2022/08/23 02:03:05;;;;;;;17.45;11.02;;;;;;;23.51;57.11;99758.19;5033953;28;20046;-74
2022/08/23 02:05:33;;;;;;;16.67;9.52;;;;;;;23.77;56.75;99794.38;5033754;28;20556;-73
2022/08/23 02:08:59;;;;;;;18.55;10.10;;;;;;;23.73;56.78;99801.25;5033606;28;20107;-73
2022/08/23 02:10:47;;;;;;;26.38;11.98;;;;;;;23.81;56.90;99812.34;5034010;28;20469;-74
2022/08/23 02:13:14;;;;;;;18.48;9.68;;;;;;;23.76;56.57;99801.31;5033821;28;20049;-73
2022/08/23 02:15:43;;;;;;;23.65;9.73;;;;;;;23.46;56.86;99752.84;5033802;28;20077;-73
2022/08/23 02:18:11;;;;;;;29.83;10.05;;;;;;;23.63;56.70;99785.63;5034535;28;20080;-74
2022/08/23 02:20:50;;;;;;;19.58;9.00;;;;;;;23.59;56.57;99779.03;5033559;28;20049;-73
2022/08/23 02:23:19;;;;;;;17.67;10.48;;;;;;;23.75;56.40;99802.50;5033511;28;20076;-74
2022/08/23 02:25:46;;;;;;;21.30;10.43;;;;;;;23.73;56.87;99815.50;5033350;28;20049;-74
2022/08/23 02:28:13;;;;;;;16.23;10.23;;;;;;;23.65;56.90;99812.50;5032775;28;20107;-74
2022/08/23 02:30:40;;;;;;;17.10;9.88;;;;;;;23.64;56.42;99812.91;5033474;28;20075;-74
2022/08/23 02:33:07;;;;;;;17.23;10.02;;;;;;;23.64;57.00;99812.91;5033047;28;20056;-74
2022/08/23 02:35:36;;;;;;;21.80;10.50;;;;;;;23.55;56.90;99803.81;5040810;28;20057;-74
2022/08/23 02:38:10;;;;;;;18.83;9.82;;;;;;;23.53;56.77;99800.56;5053085;28;20101;-74
2022/08/23 02:40:38;;;;;;;20.77;10.50;;;;;;;23.62;56.76;99821.88;5053208;28;20508;-74
2022/08/23 02:43:05;;;;;;;23.85;10.63;;;;;;;23.06;56.65;99731.53;5052911;28;20053;-73
2022/08/23 02:45:33;;;;;;;18.58;9.70;;;;;;;23.47;56.96;99797.22;5053161;28;20126;-73
2022/08/23 02:48:00;;;;;;;18.23;10.82;;;;;;;23.42;56.88;99792.69;5053186;28;20072;-73
2022/08/23 02:50:27;;;;;;;22.58;11.18;;;;;;;23.30;56.46;99766.47;5045244;28;20091;-73
2022/08/23 02:52:54;;;;;;;26.77;11.38;;;;;;;23.25;56.60;99756.22;5042108;28;20106;-73
2022/08/23 02:55:21;;;;;;;21.48;10.68;;;;;;;23.42;56.72;99791.88;5052850;28;20084;-73
2022/08/23 02:57:48;;;;;;;18.63;9.38;;;;;;;23.03;56.88;99722.94;5051973;28;20049;-73
2022/08/23 03:00:16;;;;;;;19.38;9.20;;;;;;;23.41;56.98;99778.81;5052816;28;20417;-73
2022/08/23 03:02:44;;;;;;;20.90;10.02;;;;;;;23.55;56.98;99809.53;5052598;28;20053;-73
2022/08/23 03:05:12;;;;;;;23.15;9.95;;;;;;;23.54;57.02;99810.75;5052472;28;20044;-73
2022/08/23 03:07:39;;;;;;;17.08;9.82;;;;;;;23.50;57.04;99818.44;5067865;28;20049;-73
2022/08/23 03:10:08;;;;;;;18.40;9.30;;;;;;;23.39;56.67;99796.31;5051666;28;20053;-73
2022/08/23 03:12:35;;;;;;;17.20;9.20;;;;;;;22.98;56.72;99734.69;5052197;28;20052;-74
2022/08/23 03:15:03;;;;;;;19.35;9.77;;;;;;;23.15;57.20;99756.91;5052507;28;20068;-73
2022/08/23 03:17:31;;;;;;;28.88;9.15;;;;;;;22.88;57.33;99719.88;5051364;28;20045;-74
2022/08/23 03:19:58;;;;;;;23.15;9.85;;;;;;;23.32;57.01;99803.94;5052589;28;20551;-74
2022/08/23 03:22:25;;;;;;;18.65;9.98;;;;;;;23.22;57.57;99793.22;5052649;28;20080;-74
2022/08/23 03:24:52;;;;;;;17.35;9.77;;;;;;;23.27;57.59;99799.38;5052447;28;20499;-74
2022/08/23 03:27:19;;;;;;;14.68;9.93;;;;;;;22.99;57.33;99776.19;5046587;28;20037;-74
2022/08/23 03:29:46;;;;;;;19.75;8.93;;;;;;;23.23;57.58;99815.59;5032589;28;20049;-74
2022/08/23 03:32:13;;;;;;;23.83;9.68;;;;;;;22.60;57.68;99708.88;5032519;28;20088;-74
2022/08/23 03:34:41;;;;;;;21.83;10.95;;;;;;;23.15;57.90;99796.78;5032359;28;20058;-72
2022/08/23 03:37:08;;;;;;;16.95;9.68;;;;;;;23.17;58.11;99805.72;5032363;28;20053;-73
2022/08/23 03:39:35;;;;;;;18.10;8.38;;;;;;;22.97;58.06;99776.53;5032687;28;20104;-73
2022/08/23 03:42:02;;;;;;;18.38;8.52;;;;;;;23.03;58.38;99789.25;5032478;28;20088;-73
2022/08/23 03:44:29;;;;;;;20.63;9.32;;;;;;;22.88;58.25;99776.81;5032849;28;20088;-74
2022/08/23 03:46:56;;;;;;;16.55;9.55;;;;;;;22.57;58.22;99731.59;5032212;28;20053;-74
2022/08/23 03:49:23;;;;;;;20.27;9.45;;;;;;;22.87;58.26;99769.47;5032293;28;20088;-73
2022/08/23 03:51:50;;;;;;;22.92;9.98;;;;;;;22.78;58.53;99770.94;5032252;28;20049;-73
2022/08/23 03:54:17;;;;;;;16.00;9.93;;;;;;;22.86;58.43;99778.38;5032200;28;20049;-73
2022/08/23 03:56:59;;;;;;;28.88;12.38;;;;;;;22.98;58.43;99791.63;5032534;28;20083;-72
2022/08/23 03:59:27;;;;;;;33.13;11.93;;;;;;;23.03;58.16;99794.13;5032288;28;20049;-72
2022/08/23 04:01:55;;;;;;;29.35;11.73;;;;;;;22.99;58.26;99785.53;5031818;28;20125;-73
2022/08/23 04:04:22;;;;;;;22.52;10.10;;;;;;;22.71;58.03;99748.88;5028625;28;20148;-72
2022/08/23 04:06:49;;;;;;;19.75;9.77;;;;;;;23.03;58.38;99799.81;5031816;28;20475;-72
2022/08/23 04:09:16;;;;;;;14.65;9.13;;;;;;;22.85;58.20;99766.19;5031791;28;20104;-73
2022/08/23 04:11:43;;;;;;;17.90;10.55;;;;;;;22.44;58.02;99711.03;5032319;28;20077;-73
2022/08/23 04:14:11;;;;;;;23.38;10.80;;;;;;;22.87;58.56;99783.72;5032343;28;20054;-73
2022/08/23 04:16:39;;;;;;;22.75;10.27;;;;;;;22.85;58.10;99771.88;5032133;28;20506;-72
2022/08/23 04:19:08;;;;;;;19.98;9.70;;;;;;;22.99;58.63;99793.25;5030683;28;20068;-72
2022/08/23 04:21:37;;;;;;;23.48;9.25;;;;;;;22.99;58.50;99796.13;5031976;28;20092;-73
2022/08/23 04:24:04;;;;;;;25.27;12.13;;;;;;;22.87;58.16;99780.03;5032675;28;20076;-72
2022/08/23 04:26:32;;;;;;;25.52;11.30;;;;;;;22.86;58.31;99789.78;5035569;28;20054;-74
2022/08/23 04:28:59;;;;;;;24.73;11.88;;;;;;;22.94;58.26;99800.94;5035174;28;20053;-74
2022/08/23 04:31:27;;;;;;;23.23;10.48;;;;;;;22.86;58.33;99793.44;5034313;28;20100;-74
2022/08/23 04:34:00;;;;;;;21.25;10.68;;;;;;;22.79;58.75;99790.47;5036213;28;20506;-72
2022/08/23 04:36:34;;;;;;;23.33;10.68;;;;;;;22.82;58.55;99788.91;5035220;28;20077;-73
2022/08/23 04:39:02;;;;;;;14.80;10.70;;;;;;;22.77;58.96;99797.75;5035378;28;20042;-72
2022/08/23 04:44:15;;;;;;;24.15;10.75;;;;;;;22.71;58.90;99805.81;5035363;28;20494;-73
2022/08/23 04:46:42;;;;;;;17.25;9.55;;;;;;;22.01;58.93;99708.22;5035468;28;20052;-73
2022/08/23 04:49:10;;;;;;;19.50;11.45;;;;;;;22.25;59.08;99757.44;5035360;28;20103;-73
2022/08/23 04:51:38;;;;;;;28.42;9.52;;;;;;;22.47;59.10;99792.78;5034482;28;20049;-74
2022/08/23 04:54:06;;;;;;;19.35;10.13;;;;;;;21.94;59.27;99705.25;5034981;28;20112;-73
2022/08/23 04:56:33;;;;;;;16.52;9.90;;;;;;;22.47;59.46;99789.94;5034918;28;20080;-73
2022/08/23 04:59:01;;;;;;;21.20;10.45;;;;;;;22.57;59.38;99794.19;5034975;28;20042;-73
2022/08/23 05:01:28;;;;;;;15.35;9.60;;;;;;;22.51;59.52;99779.44;5034900;28;20045;-74
2022/08/23 05:03:55;;;;;;;17.58;10.68;;;;;;;22.29;59.27;99749.81;5034856;28;20168;-74
2022/08/23 05:06:23;;;;;;;17.15;9.93;;;;;;;22.55;59.43;99790.88;5034734;28;20088;-74
2022/08/23 05:08:50;;;;;;;22.98;10.10;;;;;;;22.66;59.78;99808.97;5035540;28;20119;-74
2022/08/23 05:11:17;;;;;;;16.98;10.68;;;;;;;22.14;59.79;99731.63;5035486;28;20103;-74
2022/08/23 05:13:44;;;;;;;27.00;10.35;;;;;;;22.59;59.49;99798.28;5034488;28;20421;-74
2022/08/23 05:16:12;;;;;;;19.92;10.18;;;;;;;22.37;59.72;99762.94;5035151;28;20073;-74
2022/08/23 05:18:40;;;;;;;24.40;12.32;;;;;;;22.11;59.52;99706.78;5020042;28;20455;-73
2022/08/23 05:21:07;;;;;;;24.15;11.18;;;;;;;22.67;59.39;99800.06;5014860;28;20057;-73
2022/08/23 05:23:36;;;;;;;23.35;12.70;;;;;;;22.68;59.43;99801.69;5015129;28;20049;-73
2022/08/23 05:26:03;;;;;;;24.73;11.50;;;;;;;22.54;59.47;99769.34;5027466;28;20084;-74
2022/08/23 05:28:33;;;;;;;14.55;11.20;;;;;;;22.77;59.81;99792.06;5034457;28;20180;-74
2022/08/23 05:31:17;;;;;;;20.83;11.13;;;;;;;22.80;59.61;99797.81;5035104;28;20075;-74
2022/08/23 05:33:45;;;;;;;31.27;11.65;;;;;;;22.92;59.41;99819.56;5034331;28;20073;-74
2022/08/23 05:36:14;;;;;;;26.40;11.35;;;;;;;22.82;59.55;99789.72;5034260;28;20046;-73
2022/08/23 05:38:41;;;;;;;27.07;11.37;;;;;;;22.80;59.06;99802.69;5034245;28;20045;-73
2022/08/23 05:41:09;;;;;;;18.77;11.77;;;;;;;22.72;59.32;99790.38;5034579;28;20053;-73
2022/08/23 05:43:36;;;;;;;22.67;11.60;;;;;;;22.59;59.32;99774.69;5034958;28;20045;-73
2022/08/23 05:46:06;;;;;;;24.17;11.95;;;;;;;22.85;59.72;99813.75;5034261;28;20057;-74
2022/08/23 05:48:40;;;;;;;18.23;11.25;;;;;;;22.89;59.77;99815.44;5033927;28;20046;-74
2022/08/23 05:51:34;;;;;;;18.70;11.40;;;;;;;22.89;59.24;99814.63;5033811;28;20073;-74
2022/08/23 05:54:06;;;;;;;18.05;10.43;;;;;;;22.84;59.32;99804.41;5029761;28;20411;-74
2022/08/23 05:56:37;;;;;;;18.08;11.00;;;;;;;22.37;59.68;99739.38;5033938;28;20050;-73
2022/08/23 05:59:07;;;;;;;17.33;11.05;;;;;;;22.86;59.37;99821.09;5037004;28;20099;-73
2022/08/23 06:01:39;;;;;;;21.10;11.57;;;;;;;22.66;59.51;99797.56;5053661;28;20140;-73
2022/08/23 06:04:10;;;;;;;25.00;12.52;;;;;;;22.80;59.64;99829.13;5053932;28;20095;-73
2022/08/23 06:06:39;;;;;;;19.42;10.60;;;;;;;22.75;59.37;99835.16;5053586;28;20088;-73
2022/08/23 06:09:07;;;;;;;26.27;11.77;;;;;;;22.67;59.76;99822.00;5053504;28;20489;-73
2022/08/23 06:11:35;;;;;;;19.33;11.32;;;;;;;22.65;59.53;99821.56;5053425;28;20072;-74
2022/08/23 06:14:04;;;;;;;25.55;12.02;;;;;;;22.75;59.37;99838.00;5033882;28;20053;-73
2022/08/23 06:16:40;;;;;;;24.33;14.00;;;;;;;22.76;59.33;99841.66;5034640;28;20049;-73
2022/08/23 06:19:09;;;;;;;26.33;12.15;;;;;;;22.45;59.18;99790.31;5033592;28;20456;-73
2022/08/23 06:21:37;;;;;;;18.20;13.00;;;;;;;22.47;59.85;99798.47;5033899;28;20501;-73
2022/08/23 06:24:05;;;;;;;25.05;13.10;;;;;;;22.49;59.54;99793.22;5033659;28;20417;-73
2022/08/23 06:26:37;;;;;;;20.25;12.25;;;;;;;22.86;59.44;99836.13;5033265;28;20049;-73
2022/08/23 06:29:07;;;;;;;29.50;12.77;;;;;;;22.88;59.50;99835.78;5048440;28;20090;-73
2022/08/23 06:31:45;;;;;;;22.73;12.07;;;;;;;22.62;59.44;99779.63;5033260;28;20056;-73
2022/08/23 06:34:24;;;;;;;18.75;12.35;;;;;;;23.05;59.67;99837.31;5033881;28;20053;-74
2022/08/23 06:36:54;;;;;;;18.75;11.57;;;;;;;23.03;59.12;99800.66;5033114;28;20049;-74
2022/08/23 06:39:23;;;;;;;23.17;12.43;;;;;;;23.24;59.04;99813.56;5033012;28;20049;-74
2022/08/23 06:41:51;;;;;;;20.85;13.40;;;;;;;23.22;58.71;99791.19;5033537;28;20069;-74
2022/08/23 06:44:19;;;;;;;18.25;13.32;;;;;;;23.32;58.58;99784.00;5032172;28;20469;-74
2022/08/23 06:46:47;;;;;;;22.70;11.80;;;;;;;23.75;58.46;99833.84;5047970;28;20482;-74
2022/08/23 06:49:15;;;;;;;22.63;11.77;;;;;;;23.82;58.17;99813.97;5032714;28;20045;-74
2022/08/23 06:51:46;;;;;;;19.10;12.73;;;;;;;24.17;58.07;99834.75;5033635;28;20081;-74
2022/08/23 06:54:15;;;;;;;17.83;11.73;;;;;;;24.21;57.90;99815.66;5032836;28;20057;-73
2022/08/23 06:56:43;;;;;;;25.05;11.30;;;;;;;24.55;57.77;99839.28;5032808;28;20560;-74
2022/08/23 06:59:10;;;;;;;22.08;12.65;;;;;;;24.73;57.28;99843.13;5047954;28;20080;-74
2022/08/23 07:01:46;;;;;;;19.27;13.38;;;;;;;24.95;57.17;99846.16;5032678;28;20049;-75
2022/08/23 07:04:17;;;;;;;28.55;15.55;;;;;;;24.83;57.13;99793.84;5032725;28;20057;-75
2022/08/23 07:06:45;;;;;;;22.40;12.25;;;;;;;25.25;56.61;99843.97;5033269;28;20077;-74
2022/08/23 07:09:12;;;;;;;20.77;13.00;;;;;;;25.20;56.74;99827.22;5032656;28;20547;-74
2022/08/23 07:11:40;;;;;;;15.25;12.57;;;;;;;25.25;56.59;99841.13;5047901;28;20104;-73
2022/08/23 07:14:15;;;;;;;18.20;13.50;;;;;;;25.28;56.47;99831.75;5032492;28;20057;-73
2022/08/23 07:16:51;;;;;;;21.65;12.55;;;;;;;25.41;56.41;99840.81;5032573;28;20075;-74
2022/08/23 07:19:20;;;;;;;23.55;11.82;;;;;;;25.35;56.08;99828.13;5032656;28;20076;-74
2022/08/23 07:21:55;;;;;;;25.58;11.77;;;;;;;25.49;56.10;99853.13;5032464;28;20084;-74
2022/08/23 07:24:22;;;;;;;20.40;11.77;;;;;;;25.60;55.96;99844.59;5031919;28;20498;-74
2022/08/23 07:26:50;;;;;;;12.88;10.57;;;;;;;25.82;55.76;99834.97;5031878;28;20077;-74
2022/08/23 07:29:20;;;;;;;20.73;12.77;;;;;;;26.22;55.61;99853.91;5032438;28;20045;-75
2022/08/23 07:31:50;;;;;;;23.52;14.55;;;;;;;26.43;55.34;99832.28;5032820;28;20057;-74
2022/08/23 07:34:19;;;;;;;16.38;12.65;;;;;;;26.49;54.68;99809.81;5031263;28;20136;-75
2022/08/23 07:36:47;;;;;;;20.38;14.40;;;;;;;26.94;54.31;99819.69;5032433;28;20081;-75
2022/08/23 07:39:15;;;;;;;21.65;17.00;;;;;;;27.36;53.82;99833.16;5032440;28;20049;-75
2022/08/23 07:41:43;;;;;;;21.90;10.80;;;;;;;27.86;52.59;99841.66;5032980;28;20119;-75
2022/08/23 07:44:11;;;;;;;19.48;14.07;;;;;;;28.23;51.67;99823.03;5032247;28;20053;-74
2022/08/23 07:46:44;;;;;;;18.40;15.48;;;;;;;28.67;50.76;99817.84;5032317;28;20077;-75
2022/08/23 07:49:12;;;;;;;19.45;12.32;;;;;;;29.12;50.23;99838.03;5032501;28;20053;-74
2022/08/23 07:51:41;;;;;;;23.95;13.35;;;;;;;29.39;49.70;99823.81;5032435;28;20045;-74
2022/08/23 07:54:10;;;;;;;14.85;13.05;;;;;;;29.72;48.68;99820.19;5031391;28;20119;-75
2022/08/23 07:56:37;;;;;;;25.63;13.48;;;;;;;29.44;48.04;99740.75;5031371;28;20552;-75
2022/08/23 07:59:06;;;;;;;21.00;16.95;;;;;;;30.09;48.11;99791.75;5033808;28;20148;-75
2022/08/23 08:01:34;;;;;;;16.05;14.30;;;;;;;30.45;46.90;99833.22;5036540;28;20472;-75
2022/08/23 08:04:02;;;;;;;24.90;12.85;;;;;;;30.68;46.62;99834.53;5036037;28;20049;-75
2022/08/23 08:06:31;;;;;;;15.95;12.70;;;;;;;30.84;46.55;99843.38;5036176;28;20072;-74
2022/08/23 08:08:58;;;;;;;15.57;13.95;;;;;;;31.01;46.28;99823.31;5036083;28;20103;-75
2022/08/23 08:11:30;;;;;;;16.05;11.48;;;;;;;31.26;45.09;99817.91;5036092;28;20398;-75
2022/08/23 08:14:04;;;;;;;20.33;12.23;;;;;;;31.47;45.22;99808.06;5036133;28;20103;-75
2022/08/23 08:16:37;;;;;;;15.38;11.55;;;;;;;31.75;44.06;99821.13;5036572;28;20107;-75
2022/08/23 08:19:06;;;;;;;27.00;14.32;;;;;;;32.14;43.60;99842.63;5034722;28;20458;-75
2022/08/23 08:21:35;;;;;;;26.48;14.00;;;;;;;32.24;43.20;99847.34;5035933;28;20103;-75
2022/08/23 08:24:09;;;;;;;22.05;11.73;;;;;;;32.09;42.75;99846.84;5035659;28;20046;-75
2022/08/23 08:26:36;;;;;;;21.65;11.43;;;;;;;31.87;42.91;99819.69;5035437;28;20497;-75
2022/08/23 08:29:04;;;;;;;20.02;11.25;;;;;;;32.16;42.08;99847.94;5035236;28;20097;-75
2022/08/23 08:31:31;;;;;;;13.07;9.98;;;;;;;31.96;42.06;99793.09;5035737;28;20049;-75
2022/08/23 08:33:58;;;;;;;14.90;12.13;;;;;;;32.60;41.84;99863.09;5051331;28;20045;-76
2022/08/23 08:36:53;;;;;;;18.08;11.60;;;;;;;32.70;41.59;99851.28;5050570;28;20092;-76
2022/08/23 08:39:27;;;;;;;14.52;13.10;;;;;;;32.63;41.09;99845.66;5034686;28;20048;-77
2022/08/23 08:42:13;;;;;;;22.48;11.23;;;;;;;32.79;40.90;99870.91;5035475;28;20137;-76
2022/08/23 08:44:57;;;;;;;17.42;12.88;;;;;;;33.01;40.85;99856.75;5035301;28;20099;-75
2022/08/23 08:47:39;;;;;;;23.23;12.25;;;;;;;33.44;40.07;99861.44;5035510;28;20080;-75
2022/08/23 08:50:06;;;;;;;18.35;11.60;;;;;;;33.77;39.58;99872.97;5038547;28;20042;-75
2022/08/23 08:52:41;;;;;;;20.33;10.45;;;;;;;33.77;39.14;99817.94;5030531;28;20057;-76
2022/08/23 08:55:13;;;;;;;17.77;10.40;;;;;;;33.86;39.09;99826.78;5035368;28;20072;-75
2022/08/23 08:57:45;;;;;;;18.40;11.35;;;;;;;33.81;38.69;99836.84;5034958;28;20077;-76
2022/08/23 09:00:19;;;;;;;17.73;11.70;;;;;;;33.85;38.22;99852.06;5035053;28;20239;-75
2022/08/23 09:02:46;;;;;;;21.42;12.30;;;;;;;34.01;38.25;99867.75;5035120;28;20076;-74
2022/08/23 09:05:17;;;;;;;18.80;13.95;;;;;;;34.07;37.91;99878.34;5033683;28;20061;-76
2022/08/23 09:08:02;;;;;;;15.55;13.52;;;;;;;34.11;37.74;99878.22;5052164;28;20559;-74
2022/08/23 09:11:00;;;;;;;21.42;13.52;;;;;;;34.00;38.27;99869.84;5054216;28;20081;-75
2022/08/23 09:14:18;;;;;;;18.70;12.68;;;;;;;34.05;38.28;99869.28;5054905;28;20460;-75
2022/08/23 09:16:50;;;;;;;20.13;12.75;;;;;;;34.23;37.27;99877.47;5037155;28;20053;-75
2022/08/23 09:19:21;;;;;;;17.60;11.80;;;;;;;34.29;37.29;99860.28;5054509;28;20083;-75
2022/08/23 09:22:01;;;;;;;19.95;12.02;;;;;;;34.53;37.05;99876.16;5054779;28;20045;-75
2022/08/23 09:24:29;;;;;;;16.98;10.48;;;;;;;34.07;37.10;99829.06;5053511;28;20099;-75
2022/08/23 09:26:56;;;;;;;18.90;10.82;;;;;;;34.37;36.96;99882.00;5054309;28;20072;-75
2022/08/23 09:29:32;;;;;;;28.52;13.55;;;;;;;34.42;36.61;99870.63;5054220;28;20096;-75
2022/08/23 09:32:03;;;;;;;22.98;10.45;;;;;;;34.53;36.41;99872.44;5053472;28;20053;-75
2022/08/23 09:34:29;;;;;;;20.75;11.20;;;;;;;34.69;36.26;99880.22;5054269;28;20498;-75
2022/08/23 09:37:15;;;;;;;22.50;10.50;;;;;;;35.02;35.94;99877.94;5054207;28;20049;-75
2022/08/23 09:39:46;;;;;;;19.20;11.40;;;;;;;34.96;35.21;99816.75;5053670;28;20045;-74
2022/08/23 09:42:26;;;;;;;18.00;11.70;;;;;;;35.53;35.32;99872.88;5053375;28;20053;-75
2022/08/23 09:44:55;;;;;;;13.18;10.27;;;;;;;35.63;34.80;99870.06;5054506;28;20087;-76
2022/08/23 09:47:39;;;;;;;20.58;10.43;;;;;;;35.76;34.61;99860.03;5053015;28;20563;-76
2022/08/23 09:50:25;;;;;;;19.90;13.07;;;;;;;35.78;34.87;99874.06;5040633;28;20051;-75
2022/08/23 09:53:02;;;;;;;23.40;13.13;;;;;;;35.72;34.41;99867.22;5033890;28;20050;-74
2022/08/23 09:55:32;;;;;;;12.75;9.60;;;;;;;35.76;34.44;99886.16;5033904;28;20318;-75
2022/08/23 09:58:02;;;;;;;19.23;10.25;;;;;;;35.54;34.00;99851.25;5043846;28;20045;-74
2022/08/23 10:00:34;;;;;;;17.35;14.15;;;;;;;35.81;34.28;99870.22;5053693;28;20048;-75
2022/08/23 10:03:22;;;;;;;13.57;11.00;;;;;;;35.89;33.88;99876.56;5053626;28;20053;-76
2022/08/23 10:05:58;;;;;;;12.52;10.57;;;;;;;35.86;34.19;99878.31;5053992;28;20045;-75
2022/08/23 10:08:32;;;;;;;17.20;9.95;;;;;;;35.74;34.24;99877.09;5053583;28;20052;-75
2022/08/23 10:11:10;;;;;;;22.13;10.65;;;;;;;35.66;33.98;99893.19;5053562;28;20132;-75
2022/08/23 10:13:41;;;;;;;21.58;14.38;;;;;;;35.59;33.99;99876.81;5053212;28;20053;-73
2022/08/23 10:16:39;;;;;;;19.70;10.90;;;;;;;35.43;34.17;99845.00;5013838;28;20100;-75
2022/08/23 10:19:09;;;;;;;14.95;10.15;;;;;;;35.63;33.66;99891.22;5013780;28;20096;-76
2022/08/23 10:21:46;;;;;;;15.98;10.30;;;;;;;35.75;33.49;99877.91;5013153;28;20053;-75
2022/08/23 10:24:45;;;;;;;18.85;9.98;;;;;;;35.67;33.96;99888.19;5013797;28;20089;-76
2022/08/23 10:30:13;;;;;;;19.88;10.20;;;;;;;35.80;33.15;99886.03;5013432;28;20082;-75
2022/08/23 10:32:49;;;;;;;17.42;10.15;;;;;;;35.83;33.70;99891.72;5031570;28;20077;-73
2022/08/23 10:35:34;;;;;;;11.35;9.90;;;;;;;35.66;33.75;99886.53;5048746;28;20426;-75
2022/08/23 10:38:11;;;;;;;13.20;10.40;;;;;;;35.75;32.79;99895.34;5033281;28;20454;-75
2022/08/23 10:40:53;;;;;;;14.50;10.45;;;;;;;35.35;33.32;99881.34;5033342;28;20449;-75
2022/08/23 10:43:58;;;;;;;14.65;10.65;;;;;;;35.12;33.68;99892.09;5033444;28;20445;-75
2022/08/23 10:46:29;;;;;;;15.68;9.98;;;;;;;35.06;33.95;99884.44;5029994;28;20111;-76
2022/08/23 10:49:00;;;;;;;12.25;9.68;;;;;;;35.03;33.72;99886.16;5033431;28;20072;-74
2022/08/23 10:51:31;;;;;;;15.05;12.52;;;;;;;35.24;33.15;99883.81;5033459;28;20095;-74
2022/08/23 10:54:15;;;;;;;18.55;14.02;;;;;;;35.21;33.09;99844.13;5033692;28;20049;-75
2022/08/23 10:56:42;;;;;;;13.00;11.00;;;;;;;35.45;33.08;99851.13;5033450;28;20140;-74
2022/08/23 10:59:21;;;;;;;15.55;11.60;;;;;;;35.50;33.12;99849.75;5033148;28;20132;-75
2022/08/23 11:02:00;;;;;;;16.23;11.75;;;;;;;35.89;32.90;99889.00;5032920;28;20073;-77
2022/08/23 11:05:04;;;;;;;19.67;10.98;;;;;;;36.00;32.76;99888.59;5032745;28;20073;-75
2022/08/23 11:07:42;;;;;;;16.92;9.68;;;;;;;35.80;32.70;99862.81;5052659;28;20056;-75
2022/08/23 11:10:15;;;;;;;14.77;9.98;;;;;;;35.92;32.12;99876.44;5052506;28;20142;-75
2022/08/23 11:12:55;;;;;;;16.17;12.05;;;;;;;36.13;32.13;99879.84;5052835;28;20045;-74
2022/08/23 11:15:42;;;;;;;12.20;10.45;;;;;;;36.14;32.70;99881.47;5052845;28;20073;-75
2022/08/23 11:18:41;;;;;;;11.52;10.38;;;;;;;36.26;32.40;99877.69;5052459;28;20494;-75
2022/08/23 11:21:10;;;;;;;13.97;9.47;;;;;;;36.54;31.33;99894.03;5052678;28;20458;-76
2022/08/23 11:24:13;;;;;;;10.63;9.52;;;;;;;36.50;32.23;99887.56;5052375;28;20639;-75
2022/08/23 11:26:43;;;;;;;12.52;9.90;;;;;;;36.73;30.88;99891.25;5052521;28;20114;-75
2022/08/23 11:29:10;;;;;;;11.57;9.73;;;;;;;36.74;31.34;99889.97;5052392;28;20053;-75
2022/08/23 11:31:49;;;;;;;11.75;10.15;;;;;;;36.80;30.71;99882.22;5052712;28;20045;-76
2022/08/23 11:34:31;;;;;;;12.98;9.60;;;;;;;36.73;31.18;99894.16;5055671;28;20103;-75
2022/08/23 11:37:17;;;;;;;10.88;9.75;;;;;;;36.90;30.73;99878.06;5056813;28;20045;-75
2022/08/23 11:39:56;;;;;;;13.43;9.63;;;;;;;36.95;30.59;99886.16;5055426;28;20122;-76
2022/08/23 11:42:38;;;;;;;10.63;9.65;;;;;;;36.86;30.34;99888.25;5056333;28;20107;-74
2022/08/23 11:45:36;;;;;;;13.18;9.68;;;;;;;36.51;31.10;99883.38;5056579;28;20049;-75
2022/08/23 11:48:28;;;;;;;14.27;13.00;;;;;;;36.64;30.82;99882.47;5052655;28;20041;-74
2022/08/23 11:50:58;;;;;;;12.02;9.50;;;;;;;36.91;30.62;99882.59;5036479;28;20430;-75
2022/08/23 11:53:54;;;;;;;13.05;9.40;;;;;;;37.17;29.78;99877.38;5035844;28;20052;-75